Saint Louis, MO

9:44 PM CDT on September 25, 2016 (GMT -0500)
Grand / Lindell | | Change Station

Elev 656 ft 38.64 °N, 90.23 °W | Updated 2 seconds ago

Scattered Clouds
Scattered Clouds
77.4 °F
Feels Like 79 °F
N
9.2
Wind Variable Wind from NE
Gusts 15.0 mph

Today
High -- | Low -- °F
--% Chance of Precip.
Yesterday
High -- | Low -- °F
Precip. -- in
Pressure 30.00 in
Visibility 10.0 miles
Clouds Few 5000 ft
Few 12000 ft
Scattered Clouds 25000 ft
Heat Index 79 °F
Dew Point 66 °F
Humidity 68%
Rainfall 0.00 in
Snow Depth Not available.
6:51 AM 6:52 PM
Waning Crescent, 22% visible
METAR KSTL 260151Z 30006KT 10SM FEW050 FEW120 SCT250 26/19 A3004 RMK AO2 SLP159 T02560189 $
Pressure 30.00 in
Visibility 10.0 miles
Clouds Few 5000 ft
Few 12000 ft
Scattered Clouds 25000 ft
Heat Index 79 °F
Dew Point 66 °F
Humidity 68%
Rainfall 0.00 in
Snow Depth Not available.
6:51 AM 6:52 PM
Waning Crescent, 22% visible
METAR KSTL 260151Z 30006KT 10SM FEW050 FEW120 SCT250 26/19 A3004 RMK AO2 SLP159 T02560189 $

10-Day Weather Forecast

Almanac

Astronomy

Sep. 25, 2016 Rise Set
Actual Time
Civil Twilight
Nautical Twilight
Astronomical Twilight
Moon
Length of Visible Light
Length of Day
Tomorrow will be .
, % of the Moon is Illuminated

Today's Extremes

State Highs State Lows

Community

WunderPhotos

Upload Photos

1,941,826 photos uploaded!

WunderBlog® & News

Nearby

Air Quality

  Air Quality AQ Index Pollutant
Not available.

Snow Depth

Station Depth Elevation

Earthquake Activity

City Distance Mag. Time & Date
Minimum magnitude displayed is 2.5.

Coastal Water Temperatures

Place Temperature

Stations

Nearby Weather Stations

Station Location Temp. Windchill Dew Point Humidity Wind Precip. Elev Updated Type
                   

Watches & Warnings

There are currently no watches in effect.